Time;durP1;ratioP1;P1;durP2;ratioP2;P2;SDS_P1;SDS_P2;PMS_P1;PMS_P2;Temp;Humidity;BMP_temperature;BMP_pressure;BME280_temperature;BME280_humidity;BME280_pressure;Samples;Min_cycle;Max_cycle;Signal;HPM_P1;HPM_P2
2023/03/03 00:02:25;;;;;;;2.83;1.50;;;25.70;99.90;;;;;;4986620;28;20205;-78
2023/03/03 00:04:56;;;;;;;3.55;1.27;;;25.70;99.90;;;;;;4985423;28;20217;-77
2023/03/03 00:07:27;;;;;;;3.55;1.13;;;25.70;99.90;;;;;;4989386;28;20661;-78
2023/03/03 00:09:58;;;;;;;2.75;1.27;;;25.70;99.90;;;;;;4987999;28;20743;-78
2023/03/03 00:12:31;;;;;;;1.52;1.13;;;25.80;99.90;;;;;;4985999;28;20194;-78
2023/03/03 00:15:05;;;;;;;3.65;1.20;;;25.80;99.90;;;;;;4985923;28;20673;-77
2023/03/03 00:17:37;;;;;;;5.05;1.30;;;25.80;99.90;;;;;;4985786;28;20543;-77
2023/03/03 00:20:31;;;;;;;4.47;1.30;;;25.90;99.90;;;;;;4985167;28;20941;-76
2023/03/03 00:23:24;;;;;;;4.20;1.20;;;25.90;99.90;;;;;;4984495;28;20202;-76
2023/03/03 00:25:56;;;;;;;2.33;1.10;;;25.90;99.90;;;;;;4984874;28;20206;-77
2023/03/03 00:28:31;;;;;;;4.30;1.30;;;25.80;99.90;;;;;;4984798;28;20661;-77
2023/03/03 00:31:03;;;;;;;4.95;1.50;;;25.80;99.90;;;;;;4984661;28;20264;-78
2023/03/03 00:33:35;;;;;;;4.40;1.30;;;25.80;99.90;;;;;;5001102;28;20194;-77
2023/03/03 00:36:31;;;;;;;3.70;1.17;;;25.80;99.90;;;;;;5010740;28;20202;-77
2023/03/03 00:39:22;;;;;;;6.57;1.20;;;25.70;99.90;;;;;;5004319;28;20689;-77
2023/03/03 00:41:53;;;;;;;4.15;1.10;;;25.90;99.90;;;;;;4985024;28;20210;-75
2023/03/03 00:44:43;;;;;;;4.22;1.30;;;26.00;99.90;;;;;;4989917;28;20209;-77
2023/03/03 00:47:32;;;;;;;2.47;1.05;;;26.00;99.90;;;;;;4996780;28;20198;-77
2023/03/03 00:50:30;;;;;;;2.67;1.10;;;26.00;99.90;;;;;;4985370;28;20267;-77
2023/03/03 00:53:13;;;;;;;4.95;1.10;;;26.10;99.90;;;;;;4984978;28;20604;-76
2023/03/03 00:55:44;;;;;;;3.40;1.40;;;26.20;99.90;;;;;;4984660;28;20198;-77
2023/03/03 00:58:15;;;;;;;4.57;1.50;;;26.30;99.90;;;;;;4984417;28;20198;-77
2023/03/03 01:00:48;;;;;;;3.38;1.20;;;26.50;99.90;;;;;;4982970;28;20206;-77
2023/03/03 01:03:20;;;;;;;6.28;1.52;;;26.50;99.90;;;;;;4994010;28;20692;-77
2023/03/03 01:05:52;;;;;;;4.72;1.52;;;26.50;99.90;;;;;;4988476;28;20706;-77
2023/03/03 01:08:24;;;;;;;6.07;1.40;;;26.50;99.90;;;;;;4988158;28;20296;-77
2023/03/03 01:10:56;;;;;;;2.75;1.17;;;26.40;99.90;;;;;;4987682;28;20311;-77
2023/03/03 01:13:30;;;;;;;3.88;1.20;;;26.40;99.90;;;;;;4987146;28;20868;-76
2023/03/03 01:16:02;;;;;;;3.78;1.50;;;26.30;99.90;;;;;;5005274;28;20576;-78
2023/03/03 01:18:33;;;;;;;2.42;1.27;;;26.20;99.90;;;;;;5012898;28;20661;-77
2023/03/03 01:21:04;;;;;;;4.55;1.40;;;26.10;99.90;;;;;;4997924;28;20215;-77
2023/03/03 01:23:35;;;;;;;3.63;1.30;;;25.90;99.90;;;;;;4986684;28;20202;-78
2023/03/03 01:26:07;;;;;;;2.00;1.10;;;25.80;99.90;;;;;;4987698;28;20198;-77
2023/03/03 01:28:38;;;;;;;1.92;1.00;;;25.80;99.90;;;;;;4990931;28;20202;-77
2023/03/03 01:31:11;;;;;;;4.03;1.20;;;25.70;99.90;;;;;;4987791;28;20280;-78
2023/03/03 01:33:42;;;;;;;1.67;1.20;;;25.70;99.90;;;;;;4987877;28;20313;-77
2023/03/03 01:36:12;;;;;;;3.15;1.45;;;25.70;99.90;;;;;;4988611;28;20686;-77
2023/03/03 01:38:45;;;;;;;2.97;1.38;;;25.50;99.90;;;;;;4988371;28;20272;-78
2023/03/03 01:41:15;;;;;;;9.75;2.20;;;25.30;99.90;;;;;;4988024;28;20210;-77
2023/03/03 01:43:47;;;;;;;7.10;2.22;;;25.20;99.90;;;;;;4990673;28;20237;-77
2023/03/03 01:46:47;;;;;;;5.78;2.00;;;24.90;99.90;;;;;;5001694;28;20206;-78
2023/03/03 01:49:24;;;;;;;7.28;2.40;;;24.60;99.90;;;;;;4993257;28;20214;-79
2023/03/03 01:51:58;;;;;;;6.60;2.38;;;24.50;99.90;;;;;;4987865;28;20222;-78
2023/03/03 01:54:32;;;;;;;4.70;2.50;;;24.30;99.90;;;;;;4993071;28;20221;-78
2023/03/03 01:57:05;;;;;;;4.53;2.30;;;24.20;99.90;;;;;;4988293;28;20206;-78
2023/03/03 01:59:38;;;;;;;4.05;2.33;;;24.10;99.90;;;;;;4994756;28;20198;-79
2023/03/03 02:02:11;;;;;;;3.25;2.20;;;23.90;99.90;;;;;;4988036;28;20222;-77
2023/03/03 02:04:42;;;;;;;4.18;2.08;;;23.90;99.90;;;;;;4987702;28;20205;-77
2023/03/03 02:07:16;;;;;;;4.22;2.20;;;23.90;99.90;;;;;;4987775;28;20213;-78
2023/03/03 02:09:56;;;;;;;4.88;2.50;;;23.90;99.90;;;;;;4987440;28;20755;-78
2023/03/03 02:12:35;;;;;;;6.18;1.90;;;23.70;99.90;;;;;;4988058;28;20239;-78
2023/03/03 02:15:13;;;;;;;4.43;1.50;;;23.70;99.90;;;;;;4993633;28;20538;-80
2023/03/03 02:17:48;;;;;;;3.35;1.17;;;23.70;99.90;;;;;;4988341;28;20198;-80
2023/03/03 02:20:27;;;;;;;3.53;1.20;;;23.70;99.90;;;;;;4987955;28;20590;-80
2023/03/03 02:23:05;;;;;;;2.22;1.20;;;23.70;99.90;;;;;;4987258;28;20205;-80
2023/03/03 02:25:44;;;;;;;6.20;1.20;;;23.60;99.90;;;;;;4987265;28;20206;-80
2023/03/03 02:28:19;;;;;;;2.25;1.08;;;23.70;99.90;;;;;;4989221;28;20671;-80
2023/03/03 02:30:50;;;;;;;2.83;1.17;;;23.70;99.90;;;;;;4987868;28;20684;-80
2023/03/03 02:33:20;;;;;;;2.90;1.15;;;23.60;99.90;;;;;;4988624;28;20202;-80
2023/03/03 02:35:52;;;;;;;3.83;0.85;;;23.50;99.90;;;;;;4986964;28;20198;-80
2023/03/03 02:38:28;;;;;;;3.90;1.15;;;23.50;99.90;;;;;;4987754;28;20210;-80
2023/03/03 02:41:11;;;;;;;3.05;0.90;;;23.60;99.90;;;;;;4986527;28;20268;-80
2023/03/03 02:43:52;;;;;;;2.15;0.90;;;23.50;99.90;;;;;;4987543;28;20230;-80
2023/03/03 02:46:22;;;;;;;3.85;1.00;;;23.50;99.90;;;;;;4995763;28;20541;-78
2023/03/03 02:48:53;;;;;;;2.05;1.30;;;23.50;99.90;;;;;;5006110;28;20918;-80
2023/03/03 02:51:24;;;;;;;3.53;1.38;;;23.50;99.90;;;;;;4987809;28;20412;-79
2023/03/03 02:53:55;;;;;;;1.52;0.95;;;23.50;99.90;;;;;;4987725;28;20210;-79
2023/03/03 02:56:26;;;;;;;3.28;0.70;;;23.60;99.90;;;;;;4986547;28;20195;-80
2023/03/03 02:58:58;;;;;;;3.55;1.00;;;23.70;99.90;;;;;;4988362;28;22189;-79
2023/03/03 03:01:35;;;;;;;3.47;0.88;;;23.70;99.90;;;;;;4988584;28;20288;-79
2023/03/03 03:04:10;;;;;;;2.08;0.70;;;23.70;99.90;;;;;;4987350;28;20201;-79
2023/03/03 03:06:42;;;;;;;4.75;1.00;;;23.80;99.90;;;;;;4985488;28;20213;-79
2023/03/03 03:09:13;;;;;;;4.00;0.70;;;23.80;99.90;;;;;;4986335;28;20209;-78
2023/03/03 03:11:44;;;;;;;2.17;0.90;;;23.80;99.90;;;;;;4986353;28;20213;-80
2023/03/03 03:14:18;;;;;;;3.55;0.95;;;23.80;99.90;;;;;;4990110;28;20598;-80
2023/03/03 03:16:51;;;;;;;3.53;1.52;;;23.80;99.90;;;;;;4986116;28;20197;-79
2023/03/03 03:19:23;;;;;;;3.45;1.50;;;23.80;99.90;;;;;;4987341;28;20202;-79
2023/03/03 03:21:53;;;;;;;4.78;1.23;;;23.80;99.90;;;;;;4987108;28;20217;-80
2023/03/03 03:24:24;;;;;;;3.35;1.17;;;23.90;99.90;;;;;;4986251;28;20209;-79
2023/03/03 03:26:55;;;;;;;2.05;0.80;;;23.90;99.90;;;;;;4987672;28;21846;-79
2023/03/03 03:29:27;;;;;;;2.95;1.00;;;24.00;99.90;;;;;;4986105;28;20210;-77
2023/03/03 03:31:58;;;;;;;3.90;1.05;;;24.00;99.90;;;;;;4985355;28;20217;-78
2023/03/03 03:34:30;;;;;;;3.30;0.80;;;24.00;99.90;;;;;;4986422;28;20213;-78
2023/03/03 03:37:01;;;;;;;2.92;0.90;;;23.90;99.90;;;;;;4988235;28;20703;-79
2023/03/03 03:39:32;;;;;;;4.07;1.30;;;23.90;99.90;;;;;;4987810;28;20669;-78
2023/03/03 03:42:05;;;;;;;3.33;1.00;;;23.90;99.90;;;;;;4985651;28;20599;-79
2023/03/03 03:44:37;;;;;;;1.92;0.68;;;24.00;99.90;;;;;;4992288;28;20203;-78
2023/03/03 03:47:08;;;;;;;2.22;0.90;;;24.10;99.90;;;;;;5003970;28;20202;-80
2023/03/03 03:49:41;;;;;;;1.80;0.90;;;24.20;99.90;;;;;;4991489;28;20657;-78
2023/03/03 03:52:12;;;;;;;3.30;1.10;;;24.40;99.90;;;;;;4988684;28;20229;-78
2023/03/03 03:54:43;;;;;;;3.88;0.90;;;24.60;99.90;;;;;;4991842;28;20472;-78
2023/03/03 03:57:14;;;;;;;3.42;0.65;;;24.60;99.90;;;;;;4985692;28;20673;-80
2023/03/03 03:59:47;;;;;;;3.38;1.10;;;24.50;99.90;;;;;;4986088;28;20202;-78
2023/03/03 04:02:17;;;;;;;2.78;0.82;;;24.60;99.90;;;;;;4984086;28;20221;-79
2023/03/03 04:04:48;;;;;;;2.45;0.80;;;24.50;99.90;;;;;;4989009;28;21476;-79
2023/03/03 04:07:19;;;;;;;1.90;0.70;;;24.50;99.90;;;;;;4986743;28;20202;-78
2023/03/03 04:09:49;;;;;;;3.17;0.68;;;24.70;99.90;;;;;;4985074;28;20209;-78
2023/03/03 04:12:20;;;;;;;4.00;0.85;;;24.80;99.90;;;;;;4987125;28;20232;-78
2023/03/03 04:14:53;;;;;;;3.78;0.77;;;24.80;99.90;;;;;;4987613;28;20584;-78
2023/03/03 04:17:25;;;;;;;3.13;1.10;;;24.90;99.90;;;;;;4985505;28;20210;-79
2023/03/03 04:19:59;;;;;;;2.88;0.68;;;25.00;99.90;;;;;;4985289;28;20220;-79
2023/03/03 04:22:32;;;;;;;1.60;0.68;;;25.10;99.90;;;;;;4986384;28;20208;-79
2023/03/03 04:25:06;;;;;;;1.80;0.65;;;25.10;99.90;;;;;;4986346;28;20213;-78
2023/03/03 04:27:37;;;;;;;2.42;0.50;;;25.00;99.90;;;;;;4986718;28;20209;-79
2023/03/03 04:30:11;;;;;;;2.05;0.77;;;25.10;99.90;;;;;;4992000;28;20225;-79
2023/03/03 04:32:42;;;;;;;4.00;0.68;;;25.20;99.90;;;;;;4987106;28;20323;-79
2023/03/03 04:35:15;;;;;;;2.17;0.77;;;25.20;99.90;;;;;;4987297;28;20205;-78
2023/03/03 04:37:46;;;;;;;1.42;0.50;;;25.20;99.90;;;;;;4991077;28;20198;-78
2023/03/03 04:40:17;;;;;;;2.15;0.90;;;25.20;99.90;;;;;;4992928;28;20202;-78
2023/03/03 04:42:48;;;;;;;2.40;0.80;;;25.20;99.90;;;;;;4992610;28;20786;-78
2023/03/03 04:45:21;;;;;;;2.33;0.55;;;25.30;99.90;;;;;;4999100;28;20206;-79
2023/03/03 04:47:52;;;;;;;2.08;0.65;;;25.30;99.90;;;;;;5016281;28;20202;-78
2023/03/03 04:50:22;;;;;;;1.95;0.63;;;25.20;99.90;;;;;;4991102;28;20202;-78
2023/03/03 04:52:55;;;;;;;3.05;0.70;;;25.20;99.90;;;;;;4991672;28;20304;-78
2023/03/03 04:55:25;;;;;;;1.40;0.50;;;25.20;99.90;;;;;;4992625;28;20195;-78
2023/03/03 04:57:56;;;;;;;1.48;0.70;;;25.20;99.90;;;;;;4992832;28;20198;-79
2023/03/03 05:00:30;;;;;;;4.38;1.00;;;25.20;99.90;;;;;;4991416;28;20210;-79
2023/03/03 05:03:01;;;;;;;2.90;0.88;;;25.20;99.90;;;;;;4992589;28;21049;-79
2023/03/03 05:05:32;;;;;;;4.00;0.75;;;25.00;99.90;;;;;;4997621;28;20207;-80
2023/03/03 05:08:03;;;;;;;0.93;0.80;;;25.00;99.90;;;;;;4992211;28;20206;-79
2023/03/03 05:10:36;;;;;;;1.65;0.60;;;24.90;99.90;;;;;;4991667;28;20203;-80
2023/03/03 05:13:07;;;;;;;0.93;0.40;;;24.90;99.90;;;;;;4992406;28;20238;-79
2023/03/03 05:15:39;;;;;;;1.35;0.50;;;24.90;99.90;;;;;;4992824;28;20688;-80
2023/03/03 05:18:13;;;;;;;3.88;0.43;;;24.90;99.90;;;;;;4991942;28;20205;-79
2023/03/03 05:20:45;;;;;;;1.33;0.60;;;24.90;99.90;;;;;;4989596;28;20206;-80
2023/03/03 05:23:16;;;;;;;0.63;0.50;;;24.90;99.90;;;;;;4991305;28;20289;-79
2023/03/03 05:25:49;;;;;;;1.27;0.73;;;24.90;99.90;;;;;;4991961;28;20214;-79
2023/03/03 05:28:20;;;;;;;3.15;0.65;;;24.90;99.90;;;;;;4991214;28;20736;-79
2023/03/03 05:30:54;;;;;;;3.92;0.98;;;24.90;99.90;;;;;;4987919;28;20298;-79
2023/03/03 05:33:26;;;;;;;2.30;0.80;;;24.80;99.90;;;;;;4990027;28;20233;-79
2023/03/03 05:35:57;;;;;;;0.60;0.40;;;24.90;99.90;;;;;;4987581;28;20233;-80
2023/03/03 05:38:28;;;;;;;4.50;1.00;;;24.90;99.90;;;;;;4989625;28;20209;-79
2023/03/03 05:41:00;;;;;;;2.35;0.90;;;24.90;99.90;;;;;;4992962;28;20198;-79
2023/03/03 05:43:32;;;;;;;3.17;0.63;;;24.90;99.90;;;;;;4988349;28;20237;-79
2023/03/03 05:46:05;;;;;;;6.00;0.90;;;25.00;99.90;;;;;;4999716;28;20202;-79
2023/03/03 05:48:37;;;;;;;3.45;0.70;;;24.90;99.90;;;;;;4995118;28;20217;-79
2023/03/03 05:51:08;;;;;;;2.40;0.70;;;24.90;99.90;;;;;;4988902;28;20285;-79
2023/03/03 05:53:40;;;;;;;1.17;0.68;;;24.90;99.90;;;;;;4987731;28;20616;-79
2023/03/03 05:56:11;;;;;;;2.15;0.85;;;24.90;99.90;;;;;;4989555;28;20209;-79
2023/03/03 05:58:42;;;;;;;2.92;0.70;;;24.90;99.90;;;;;;4994073;28;20624;-80
2023/03/03 06:01:15;;;;;;;2.17;0.60;;;24.90;99.90;;;;;;4986594;28;20214;-79
2023/03/03 06:03:45;;;;;;;1.42;0.60;;;25.00;99.90;;;;;;4993573;28;20202;-79
2023/03/03 06:06:18;;;;;;;1.15;0.70;;;25.10;99.90;;;;;;4986941;28;20198;-79
2023/03/03 06:08:49;;;;;;;1.00;0.60;;;25.20;99.90;;;;;;4986967;28;20210;-80
2023/03/03 06:11:19;;;;;;;5.78;0.90;;;25.20;99.90;;;;;;4987120;28;20202;-78
2023/03/03 06:13:50;;;;;;;2.33;1.05;;;25.20;99.90;;;;;;4987153;28;20229;-78
2023/03/03 06:16:23;;;;;;;2.25;0.73;;;25.40;99.90;;;;;;4989035;28;20202;-79
2023/03/03 06:18:53;;;;;;;2.40;0.88;;;25.60;99.90;;;;;;4986736;28;20225;-78
2023/03/03 06:21:28;;;;;;;3.05;1.00;;;25.60;99.90;;;;;;4988009;28;20571;-78
2023/03/03 06:24:01;;;;;;;7.97;5.47;;;25.50;99.90;;;;;;4992051;28;20555;-79
2023/03/03 06:26:36;;;;;;;5.53;2.45;;;25.50;99.90;;;;;;4986976;28;20566;-79
2023/03/03 06:29:07;;;;;;;3.08;1.27;;;25.30;99.90;;;;;;4987866;28;20202;-79
2023/03/03 06:31:42;;;;;;;2.15;0.95;;;25.30;99.90;;;;;;4988676;28;20242;-80
2023/03/03 06:34:13;;;;;;;3.30;1.80;;;25.30;99.90;;;;;;4987841;28;20727;-78
2023/03/03 06:36:49;;;;;;;3.33;1.42;;;25.60;99.90;;;;;;4986926;28;20205;-78
2023/03/03 06:39:21;;;;;;;1.45;0.73;;;25.90;99.90;;;;;;4985819;28;20201;-78
2023/03/03 06:41:54;;;;;;;1.50;0.68;;;26.00;99.90;;;;;;4986544;28;20229;-78
2023/03/03 06:44:25;;;;;;;1.63;0.60;;;25.80;99.90;;;;;;4995119;28;20198;-78
2023/03/03 06:47:01;;;;;;;1.08;0.50;;;25.70;99.90;;;;;;4988141;28;20527;-77
2023/03/03 06:49:34;;;;;;;0.73;0.40;;;25.70;99.90;;;;;;5001617;28;20500;-77
2023/03/03 06:52:15;;;;;;;1.13;0.60;;;25.70;99.90;;;;;;4987242;28;20799;-77
2023/03/03 06:54:55;;;;;;;4.03;0.90;;;25.60;99.90;;;;;;4986620;28;20211;-78
2023/03/03 06:57:29;;;;;;;1.77;0.73;;;25.50;99.90;;;;;;4985994;28;20281;-78
2023/03/03 07:00:06;;;;;;;3.45;1.58;;;25.50;99.90;;;;;;4987158;28;20754;-78
2023/03/03 07:02:46;;;;;;;1.67;0.90;;;25.50;99.90;;;;;;4987918;28;20224;-78
2023/03/03 07:05:19;;;;;;;1.58;0.70;;;25.50;99.90;;;;;;4987335;28;20601;-78
2023/03/03 07:07:53;;;;;;;0.95;0.70;;;25.50;99.90;;;;;;4986524;28;20285;-77
2023/03/03 07:10:28;;;;;;;1.27;0.75;;;25.50;99.90;;;;;;4987231;28;20202;-77
2023/03/03 07:13:04;;;;;;;1.05;0.70;;;25.50;99.90;;;;;;4987195;28;20218;-77
2023/03/03 07:15:37;;;;;;;1.50;0.70;;;25.50;99.90;;;;;;4988214;28;20303;-78
2023/03/03 07:18:36;;;;;;;1.60;0.93;;;25.30;99.90;;;;;;4987411;28;20678;-78
2023/03/03 07:21:18;;;;;;;0.85;0.65;;;25.20;99.90;;;;;;4986772;28;20731;-77
2023/03/03 07:23:51;;;;;;;0.52;0.50;;;25.20;99.90;;;;;;4985033;28;20199;-77
2023/03/03 07:26:23;;;;;;;2.67;0.73;;;25.10;99.90;;;;;;4986773;28;20203;-78
2023/03/03 07:28:59;;;;;;;3.15;0.73;;;25.00;99.90;;;;;;4987209;28;20205;-78
2023/03/03 07:31:35;;;;;;;1.58;0.75;;;25.00;99.90;;;;;;4986213;28;20338;-78
2023/03/03 07:34:25;;;;;;;1.88;0.80;;;24.90;99.90;;;;;;4996481;28;20759;-80
2023/03/03 07:36:59;;;;;;;1.52;0.70;;;24.90;99.90;;;;;;5008575;28;20252;-78
2023/03/03 07:39:37;;;;;;;1.38;1.00;;;24.90;99.90;;;;;;5011480;28;20280;-79
2023/03/03 07:42:22;;;;;;;2.90;0.85;;;24.90;99.90;;;;;;5011050;28;20225;-79
2023/03/03 07:44:55;;;;;;;2.83;1.10;;;24.90;99.90;;;;;;5010540;28;20356;-79
2023/03/03 07:47:27;;;;;;;3.38;1.13;;;24.80;99.90;;;;;;5011199;28;20212;-79
2023/03/03 07:50:04;;;;;;;4.13;1.10;;;24.70;99.90;;;;;;5015516;28;20648;-79
2023/03/03 07:52:43;;;;;;;2.25;1.00;;;24.80;99.90;;;;;;5020926;28;20634;-79
2023/03/03 07:55:35;;;;;;;4.20;1.20;;;24.70;99.90;;;;;;5011405;28;20197;-79
2023/03/03 07:58:25;;;;;;;2.85;1.40;;;24.70;99.90;;;;;;5010787;28;20213;-79
2023/03/03 08:01:33;;;;;;;2.28;1.25;;;24.70;99.90;;;;;;5011227;28;20202;-79
2023/03/03 08:04:06;;;;;;;3.72;1.70;;;24.70;99.90;;;;;;5011109;28;20240;-79
2023/03/03 08:07:03;;;;;;;3.03;1.70;;;24.70;99.90;;;;;;5009217;28;20197;-79
2023/03/03 08:09:48;;;;;;;4.40;2.03;;;24.60;99.90;;;;;;5010887;28;20210;-79
2023/03/03 08:12:48;;;;;;;5.15;1.95;;;24.60;99.90;;;;;;5011930;28;20206;-79
2023/03/03 08:15:25;;;;;;;5.13;1.98;;;24.60;99.90;;;;;;5013449;28;20202;-79
2023/03/03 08:17:57;;;;;;;4.70;1.92;;;24.60;99.90;;;;;;5015003;28;20205;-79
2023/03/03 08:20:54;;;;;;;3.50;1.70;;;24.50;99.90;;;;;;5013393;28;20240;-79
2023/03/03 08:23:28;;;;;;;4.20;1.80;;;24.40;99.90;;;;;;5007971;28;20664;-79
2023/03/03 08:25:59;;;;;;;3.25;1.60;;;24.40;99.90;;;;;;5013399;28;20271;-78
2023/03/03 08:28:31;;;;;;;4.10;1.80;;;24.40;99.90;;;;;;5013109;28;20194;-78
2023/03/03 08:31:02;;;;;;;5.32;2.00;;;24.30;99.90;;;;;;5003979;28;20199;-78
2023/03/03 08:33:39;;;;;;;9.48;7.15;;;24.20;99.90;;;;;;4995152;28;20315;-78
2023/03/03 08:36:11;;;;;;;6.65;4.40;;;24.10;99.90;;;;;;4996105;28;20615;-78
2023/03/03 08:38:44;;;;;;;3.80;2.88;;;24.00;99.90;;;;;;4996950;28;20666;-78
2023/03/03 08:41:17;;;;;;;3.22;2.22;;;24.00;99.90;;;;;;5014752;28;20210;-78
2023/03/03 08:43:48;;;;;;;2.20;1.88;;;24.00;99.90;;;;;;5012282;28;20260;-77
2023/03/03 08:46:20;;;;;;;4.32;1.95;;;23.90;99.90;;;;;;5014335;28;20209;-77
2023/03/03 08:48:52;;;;;;;3.67;2.00;;;23.90;99.90;;;;;;5014181;28;20289;-78
2023/03/03 08:51:25;;;;;;;4.72;2.28;;;23.90;99.90;;;;;;5012549;28;20206;-78
2023/03/03 08:53:59;;;;;;;3.33;2.13;;;23.90;99.90;;;;;;4998953;28;20222;-79
2023/03/03 08:56:30;;;;;;;4.00;1.80;;;23.90;99.90;;;;;;5007508;28;20211;-79
2023/03/03 08:59:02;;;;;;;4.95;2.13;;;23.90;99.90;;;;;;4994747;28;20199;-78
2023/03/03 09:01:33;;;;;;;6.30;2.08;;;23.80;99.90;;;;;;5011437;28;20719;-79
2023/03/03 09:04:05;;;;;;;10.93;3.20;;;23.60;99.90;;;;;;5023723;28;20205;-79
2023/03/03 09:06:36;;;;;;;9.68;2.85;;;23.50;99.90;;;;;;5033756;28;20202;-79
2023/03/03 09:09:13;;;;;;;6.60;3.00;;;23.40;99.90;;;;;;5034275;28;20264;-80
2023/03/03 09:11:46;;;;;;;13.13;3.40;;;23.30;99.90;;;;;;5032132;28;20205;-79
2023/03/03 09:14:19;;;;;;;6.65;3.40;;;23.30;99.90;;;;;;5013559;28;20330;-79
2023/03/03 09:16:53;;;;;;;6.93;2.50;;;23.30;99.90;;;;;;5009450;28;20272;-78
2023/03/03 09:19:28;;;;;;;6.95;3.10;;;23.20;99.90;;;;;;5005965;28;20661;-78
2023/03/03 09:22:03;;;;;;;4.55;3.05;;;23.10;99.90;;;;;;5013261;28;20629;-78
2023/03/03 09:24:41;;;;;;;3.65;1.83;;;23.00;99.90;;;;;;5013810;28;20201;-78
2023/03/03 09:27:20;;;;;;;4.28;2.25;;;23.00;99.90;;;;;;5014222;28;20198;-79
2023/03/03 09:29:51;;;;;;;5.07;2.17;;;22.90;99.90;;;;;;5013850;28;20281;-79
2023/03/03 09:33:06;;;;;;;3.47;2.10;;;22.90;99.90;;;;;;5011496;28;20201;-79
2023/03/03 09:35:40;;;;;;;6.50;2.10;;;22.90;99.90;;;;;;5008835;28;20214;-79
2023/03/03 09:38:32;;;;;;;4.00;1.90;;;22.90;99.90;;;;;;5006708;28;20237;-78
2023/03/03 09:41:39;;;;;;;5.53;2.45;;;22.80;99.90;;;;;;5007529;28;20202;-79
2023/03/03 09:44:33;;;;;;;4.63;2.25;;;22.70;99.90;;;;;;5017453;28;20264;-79
2023/03/03 09:47:20;;;;;;;7.32;2.45;;;22.70;99.90;;;;;;5023776;28;20198;-78
2023/03/03 09:50:04;;;;;;;4.13;2.03;;;22.70;99.90;;;;;;5027048;28;20208;-79
2023/03/03 09:52:54;;;;;;;5.20;2.20;;;22.70;99.90;;;;;;5034575;28;20186;-77
2023/03/03 09:55:43;;;;;;;4.75;2.28;;;22.70;99.90;;;;;;5031245;28;20206;-79
2023/03/03 09:58:33;;;;;;;3.70;2.10;;;22.70;99.90;;;;;;5024545;28;20213;-80
2023/03/03 10:01:21;;;;;;;3.25;2.00;;;22.70;99.90;;;;;;5022908;28;20213;-79
2023/03/03 10:04:16;;;;;;;3.58;2.28;;;22.70;99.90;;;;;;5026399;28;20209;-79
2023/03/03 10:06:51;;;;;;;4.50;2.22;;;22.70;99.90;;;;;;5028805;28;20217;-79
2023/03/03 10:09:58;;;;;;;4.88;2.22;;;22.70;99.90;;;;;;5027077;28;20190;-78
2023/03/03 10:12:38;;;;;;;4.45;2.25;;;22.70;99.90;;;;;;5030758;28;20208;-78
2023/03/03 10:15:26;;;;;;;6.05;2.50;;;22.70;99.90;;;;;;5008215;28;20230;-79
2023/03/03 10:18:05;;;;;;;5.70;2.88;;;22.70;99.90;;;;;;5024296;28;20202;-79
2023/03/03 10:20:59;;;;;;;5.10;2.40;;;22.70;99.90;;;;;;5028001;28;20616;-78
2023/03/03 10:23:53;;;;;;;3.08;1.92;;;22.70;99.90;;;;;;5022141;28;20213;-79
2023/03/03 10:26:51;;;;;;;4.03;2.25;;;22.60;99.90;;;;;;5020969;28;20571;-78
2023/03/03 10:29:33;;;;;;;3.50;2.00;;;22.60;99.90;;;;;;5000738;28;20259;-80
2023/03/03 10:32:41;;;;;;;4.00;2.00;;;22.70;99.90;;;;;;5006105;28;20209;-81
2023/03/03 10:35:38;;;;;;;5.20;2.33;;;22.60;99.90;;;;;;5011938;28;20649;-80
2023/03/03 10:38:33;;;;;;;5.15;2.00;;;22.70;99.90;;;;;;5039447;28;20266;-80
2023/03/03 10:41:23;;;;;;;3.15;2.00;;;22.70;99.90;;;;;;5003006;28;20213;-79
2023/03/03 10:44:24;;;;;;;3.42;2.05;;;22.70;99.90;;;;;;5003860;28;20226;-81
2023/03/03 10:47:06;;;;;;;4.07;2.00;;;22.70;99.90;;;;;;5003568;28;20233;-80
2023/03/03 10:49:56;;;;;;;3.25;2.22;;;22.70;99.90;;;;;;5005324;28;20248;-79
2023/03/03 10:52:41;;;;;;;3.20;1.92;;;22.70;99.90;;;;;;5020181;28;20194;-79
2023/03/03 10:55:41;;;;;;;6.10;2.28;;;22.70;99.90;;;;;;5021871;28;20240;-79
2023/03/03 10:58:42;;;;;;;3.50;2.20;;;22.60;99.90;;;;;;5000591;28;20237;-80
2023/03/03 11:01:24;;;;;;;5.43;2.28;;;22.70;99.90;;;;;;5002118;28;20206;-80
2023/03/03 11:04:23;;;;;;;4.30;2.40;;;22.70;99.90;;;;;;5003489;28;20194;-79
2023/03/03 11:07:02;;;;;;;3.28;1.90;;;22.60;99.90;;;;;;5012911;28;20204;-80
2023/03/03 11:09:48;;;;;;;3.03;2.22;;;22.60;99.90;;;;;;5020283;28;20186;-79
2023/03/03 11:12:30;;;;;;;2.38;1.92;;;22.60;99.90;;;;;;5018000;28;20516;-79
2023/03/03 11:15:17;;;;;;;3.60;1.90;;;22.60;99.90;;;;;;5022084;28;20232;-79
2023/03/03 11:18:16;;;;;;;2.42;2.00;;;22.70;99.90;;;;;;5026291;28;20687;-80
2023/03/03 11:20:55;;;;;;;2.88;2.00;;;22.70;99.90;;;;;;5005694;28;20202;-80
2023/03/03 11:24:04;;;;;;;5.05;2.10;;;22.80;99.90;;;;;;5015546;28;20197;-79
2023/03/03 11:26:52;;;;;;;3.65;2.05;;;22.80;99.90;;;;;;5002918;28;20198;-79
2023/03/03 11:29:41;;;;;;;3.22;1.85;;;22.80;99.90;;;;;;5021324;28;20209;-78
2023/03/03 11:32:21;;;;;;;3.67;1.75;;;22.70;99.90;;;;;;4998176;28;20202;-79
2023/03/03 11:35:04;;;;;;;2.25;1.88;;;22.60;99.90;;;;;;5012488;28;20228;-79
2023/03/03 11:37:44;;;;;;;2.47;1.58;;;22.60;99.90;;;;;;5009097;28;20205;-79
2023/03/03 11:40:19;;;;;;;3.85;1.75;;;22.60;99.90;;;;;;4992039;28;20199;-79
2023/03/03 11:43:15;;;;;;;2.85;1.70;;;22.60;99.90;;;;;;4991394;28;20233;-79
2023/03/03 11:45:50;;;;;;;2.83;1.60;;;22.50;99.90;;;;;;4997158;28;20256;-78
2023/03/03 11:48:26;;;;;;;2.95;1.60;;;22.50;99.90;;;;;;5010476;28;20201;-79
2023/03/03 11:51:06;;;;;;;2.55;1.60;;;22.50;99.90;;;;;;5019910;28;20202;-79
2023/03/03 11:53:48;;;;;;;1.73;1.60;;;22.50;99.90;;;;;;5011051;28;20190;-79
2023/03/03 11:56:25;;;;;;;2.50;1.60;;;22.50;99.90;;;;;;5009749;28;20553;-79
2023/03/03 11:59:11;;;;;;;3.53;1.85;;;22.50;99.90;;;;;;5008203;28;20237;-78
2023/03/03 12:01:48;;;;;;;2.63;1.63;;;22.40;99.90;;;;;;4995761;28;20217;-78
2023/03/03 12:04:29;;;;;;;2.17;1.50;;;22.50;99.90;;;;;;5012175;28;20208;-78
2023/03/03 12:07:17;;;;;;;3.40;1.80;;;22.50;99.90;;;;;;5011172;28;20572;-79
2023/03/03 12:09:56;;;;;;;2.05;1.52;;;22.50;99.90;;;;;;4996327;28;20209;-79
2023/03/03 12:12:34;;;;;;;2.25;1.85;;;22.50;99.90;;;;;;5013159;28;20719;-78
2023/03/03 12:15:22;;;;;;;2.60;1.70;;;22.50;99.90;;;;;;5012320;28;20225;-79
2023/03/03 12:18:07;;;;;;;2.08;1.88;;;22.50;99.90;;;;;;5011805;28;20677;-79
2023/03/03 12:20:50;;;;;;;2.88;1.77;;;22.60;99.90;;;;;;5012412;28;20212;-77
2023/03/03 12:23:39;;;;;;;5.78;1.80;;;22.60;99.90;;;;;;5011538;28;20193;-78
2023/03/03 12:26:19;;;;;;;2.55;1.70;;;22.60;99.90;;;;;;5011385;28;20201;-79
2023/03/03 12:28:57;;;;;;;2.80;1.70;;;22.60;99.90;;;;;;5011711;28;20232;-76
2023/03/03 12:31:47;;;;;;;3.33;1.60;;;22.60;99.90;;;;;;5012267;28;20208;-79
2023/03/03 12:34:26;;;;;;;3.33;1.80;;;22.60;99.90;;;;;;5005224;28;20229;-78
2023/03/03 12:37:26;;;;;;;2.50;1.58;;;22.50;99.90;;;;;;4999001;28;20213;-78
2023/03/03 12:40:06;;;;;;;4.68;2.08;;;22.50;99.90;;;;;;5002806;28;20198;-79
2023/03/03 12:42:50;;;;;;;2.83;1.70;;;22.60;99.90;;;;;;5011075;28;20233;-79
2023/03/03 12:45:35;;;;;;;3.40;1.80;;;22.50;99.90;;;;;;5010421;28;20198;-78
2023/03/03 12:48:16;;;;;;;4.03;1.75;;;22.50;99.90;;;;;;5014448;28;20198;-80
2023/03/03 12:50:58;;;;;;;2.78;1.80;;;22.50;99.90;;;;;;5024269;28;20277;-78
2023/03/03 12:53:42;;;;;;;1.73;1.40;;;22.50;99.90;;;;;;4994636;28;20195;-79
2023/03/03 12:56:21;;;;;;;2.42;1.50;;;22.50;99.90;;;;;;5009760;28;20202;-80
2023/03/03 12:59:01;;;;;;;2.97;2.25;;;22.50;99.90;;;;;;5032170;28;20208;-80
2023/03/03 13:01:44;;;;;;;2.15;1.65;;;22.50;99.90;;;;;;5021368;28;20642;-80
2023/03/03 13:04:31;;;;;;;4.32;1.70;;;22.50;99.90;;;;;;4997557;28;20681;-79
2023/03/03 13:07:10;;;;;;;1.88;1.55;;;22.50;99.90;;;;;;5026026;28;20225;-79
2023/03/03 13:09:54;;;;;;;2.38;1.50;;;22.50;99.90;;;;;;5011367;28;20201;-79
2023/03/03 13:12:36;;;;;;;2.88;1.63;;;22.60;99.90;;;;;;5020776;28;20197;-78
2023/03/03 13:15:17;;;;;;;2.30;1.88;;;22.60;99.90;;;;;;5002584;28;20233;-79
2023/03/03 13:18:01;;;;;;;2.83;1.65;;;22.60;99.90;;;;;;5008646;28;20206;-78
2023/03/03 13:20:42;;;;;;;3.05;1.75;;;22.60;99.90;;;;;;5013643;28;20217;-77
2023/03/03 13:23:23;;;;;;;2.42;1.70;;;22.60;99.90;;;;;;5013941;28;20216;-78
2023/03/03 13:25:57;;;;;;;3.90;2.10;;;22.60;99.90;;;;;;5013593;28;20205;-79
2023/03/03 13:28:35;;;;;;;3.50;2.10;;;22.60;99.90;;;;;;5013769;28;20205;-79
2023/03/03 13:31:23;;;;;;;5.25;2.15;;;22.50;99.90;;;;;;4995192;28;20200;-79
2023/03/03 13:33:57;;;;;;;3.78;2.10;;;22.50;99.90;;;;;;5003539;28;20256;-79
2023/03/03 13:36:36;;;;;;;2.65;2.20;;;22.50;99.90;;;;;;5012472;28;20201;-79
2023/03/03 13:39:15;;;;;;;2.83;2.20;;;22.50;99.90;;;;;;5012541;28;20590;-78
2023/03/03 13:41:55;;;;;;;3.22;1.95;;;22.50;99.90;;;;;;5011490;28;20197;-78
2023/03/03 13:44:30;;;;;;;2.78;2.10;;;22.40;99.90;;;;;;5013246;28;20311;-78